Time;durP1;ratioP1;P1;durP2;ratioP2;P2;SDS_P1;SDS_P2;PMS_P1;PMS_P2;Temp;Humidity;BMP_temperature;BMP_pressure;BME280_temperature;BME280_humidity;BME280_pressure;Samples;Min_cycle;Max_cycle;Signal;HPM_P1;HPM_P2
2023/10/24 00:00:42;;;;;;;4.67;2.63;;;;;;;12.11;95.52;94704.66;6154578;23;20171;-80
2023/10/24 00:03:07;;;;;;;5.83;2.70;;;;;;;12.07;95.98;94692.97;6153911;23;20164;-80
2023/10/24 00:05:33;;;;;;;3.50;2.40;;;;;;;12.03;95.98;94688.31;6130684;23;20184;-81
2023/10/24 00:07:58;;;;;;;7.57;2.87;;;;;;;12.03;95.87;94685.72;6155954;23;20254;-80
2023/10/24 00:10:26;;;;;;;6.50;2.73;;;;;;;12.06;95.87;94670.53;6131912;23;20627;-80
2023/10/24 00:12:51;;;;;;;6.47;2.90;;;;;;;11.99;96.33;94680.03;6154771;23;20195;-79
2023/10/24 00:15:17;;;;;;;5.70;2.77;;;;;;;11.91;96.57;94677.50;6152737;23;20231;-80
2023/10/24 00:17:42;;;;;;;4.60;2.37;;;;;;;12.02;96.26;94681.50;6128815;23;20176;-79
2023/10/24 00:20:08;;;;;;;3.20;2.50;;;;;;;11.90;97.28;94675.91;6104976;23;20487;-79
2023/10/24 00:22:33;;;;;;;3.80;2.30;;;;;;;11.93;96.85;94683.38;6155294;23;20187;-80
2023/10/24 00:24:59;;;;;;;5.27;2.70;;;;;;;12.04;96.46;94688.13;6152978;23;20212;-80
2023/10/24 00:27:24;;;;;;;3.10;2.33;;;;;;;12.00;96.53;94692.06;6129760;23;20180;-80
2023/10/24 00:29:50;;;;;;;6.60;2.47;;;;;;;11.99;96.44;94693.06;6152237;23;20160;-78
2023/10/24 00:32:15;;;;;;;4.57;2.50;;;;;;;11.95;96.54;94694.41;6128059;23;20176;-80
2023/10/24 00:34:40;;;;;;;5.23;3.20;;;;;;;11.79;96.70;94692.72;6157715;23;20239;-78
2023/10/24 00:37:06;;;;;;;3.17;2.67;;;;;;;11.91;96.60;94706.13;6138668;23;20156;-81
2023/10/24 00:39:31;;;;;;;6.13;2.90;;;;;;;11.95;95.78;94701.41;6137280;23;20152;-80
2023/10/24 00:41:56;;;;;;;5.43;2.90;;;;;;;11.84;97.02;94700.03;6133722;23;20207;-81
2023/10/24 00:44:21;;;;;;;5.37;2.33;;;;;;;11.89;96.52;94702.91;6158369;23;20219;-81
2023/10/24 00:46:47;;;;;;;5.27;2.70;;;;;;;11.94;96.13;94705.78;6158033;23;20515;-81
2023/10/24 00:49:13;;;;;;;4.37;2.47;;;;;;;11.87;96.86;94704.88;6132970;23;20183;-81
2023/10/24 00:51:39;;;;;;;5.20;2.77;;;;;;;11.82;97.01;94691.56;6158933;23;20160;-80
2023/10/24 00:54:05;;;;;;;5.63;2.93;;;;;;;11.84;97.27;94690.44;6108088;23;20170;-80
2023/10/24 00:56:31;;;;;;;4.77;2.70;;;;;;;11.78;97.31;94674.69;6133062;23;20144;-79
2023/10/24 00:58:57;;;;;;;6.60;2.60;;;;;;;11.68;98.73;94674.13;6108396;23;20240;-78
2023/10/24 01:01:22;;;;;;;4.03;2.00;;;;;;;11.75;99.32;94668.06;6109571;23;20297;-80
2023/10/24 01:03:48;;;;;;;3.53;2.17;;;;;;;11.94;97.84;94668.56;6108160;23;20239;-81
2023/10/24 01:06:15;;;;;;;3.73;1.90;;;;;;;11.92;98.85;94655.72;6132901;23;20184;-81
2023/10/24 01:08:40;;;;;;;3.33;2.00;;;;;;;11.97;98.71;94652.59;6133883;23;20513;-78
2023/10/24 01:11:06;;;;;;;3.57;1.70;;;;;;;12.07;97.05;94653.94;6133544;23;20179;-81
2023/10/24 01:13:32;;;;;;;4.40;2.77;;;;;;;12.12;96.97;94646.41;6107625;23;20175;-80
2023/10/24 01:15:57;;;;;;;3.87;1.97;;;;;;;12.14;96.64;94654.84;6131928;23;20148;-81
2023/10/24 01:18:23;;;;;;;4.80;2.17;;;;;;;12.05;95.63;94676.75;6155665;23;20210;-80
2023/10/24 01:20:48;;;;;;;5.37;3.00;;;;;;;11.90;97.27;94662.88;6131649;23;20167;-81
2023/10/24 01:23:13;;;;;;;5.27;2.50;;;;;;;11.90;96.73;94660.28;6131827;23;20218;-80
2023/10/24 01:25:40;;;;;;;3.93;2.50;;;;;;;11.87;95.79;94660.66;6130553;23;20334;-80
2023/10/24 01:28:06;;;;;;;3.63;2.73;;;;;;;11.96;96.46;94661.38;6105551;23;20183;-80
2023/10/24 01:30:33;;;;;;;7.40;2.57;;;;;;;11.95;96.10;94665.78;6152781;23;20172;-80
2023/10/24 01:32:58;;;;;;;4.97;2.53;;;;;;;11.89;95.82;94663.88;6105038;23;20163;-81
2023/10/24 01:35:23;;;;;;;5.23;2.47;;;;;;;11.97;95.01;94678.59;6107473;23;20155;-81
2023/10/24 01:37:49;;;;;;;2.83;2.20;;;;;;;11.95;94.93;94670.97;6132776;23;20175;-80
2023/10/24 01:40:14;;;;;;;3.13;2.47;;;;;;;11.94;95.66;94658.97;6156755;23;20597;-80
2023/10/24 01:42:39;;;;;;;6.33;2.47;;;;;;;11.88;95.77;94665.69;6157754;23;20223;-79
2023/10/24 01:45:05;;;;;;;3.87;2.33;;;;;;;11.87;96.08;94658.06;6107762;23;20670;-81
2023/10/24 01:47:31;;;;;;;3.27;2.30;;;;;;;11.90;96.67;94652.47;6108495;23;20840;-82
2023/10/24 01:49:56;;;;;;;3.63;2.50;;;;;;;11.90;97.33;94652.47;6157112;23;20166;-80
2023/10/24 01:52:22;;;;;;;6.50;2.77;;;;;;;11.90;97.38;94637.69;6132617;23;20217;-80
2023/10/24 01:54:47;;;;;;;4.60;2.40;;;;;;;11.93;96.96;94628.72;6109272;23;20156;-79
2023/10/24 01:57:13;;;;;;;3.40;2.20;;;;;;;11.88;97.26;94631.84;6135465;23;20167;-81
2023/10/24 01:59:38;;;;;;;5.47;2.27;;;;;;;11.87;96.70;94639.84;6109811;23;20239;-81
2023/10/24 02:02:04;;;;;;;3.60;2.67;;;;;;;11.90;96.44;94636.88;6157509;23;20159;-79
2023/10/24 02:04:29;;;;;;;3.23;2.83;;;;;;;11.81;96.51;94633.53;6157933;23;20223;-79
2023/10/24 02:06:54;;;;;;;3.80;3.07;;;;;;;11.85;95.92;94627.03;6156521;23;20180;-80
2023/10/24 02:09:20;;;;;;;4.83;2.87;;;;;;;11.86;96.14;94643.44;6132979;23;20187;-79
2023/10/24 02:11:45;;;;;;;4.10;2.90;;;;;;;11.84;96.14;94635.81;6134878;23;20155;-81
2023/10/24 02:14:10;;;;;;;3.97;3.07;;;;;;;11.85;95.41;94640.03;6133828;23;20186;-81
2023/10/24 02:16:36;;;;;;;4.27;3.23;;;;;;;11.80;95.25;94638.94;6132507;23;20282;-81
2023/10/24 02:19:01;;;;;;;6.23;3.53;;;;;;;11.89;94.43;94651.69;6156939;23;20183;-81
2023/10/24 02:21:27;;;;;;;3.93;3.07;;;;;;;11.84;94.67;94632.41;6157782;23;20160;-80
2023/10/24 02:23:52;;;;;;;4.30;3.47;;;;;;;11.76;94.60;94635.84;6108854;23;20522;-79
2023/10/24 02:26:17;;;;;;;4.37;3.20;;;;;;;11.90;94.18;94631.66;6133349;23;20624;-81
2023/10/24 02:28:43;;;;;;;4.63;2.90;;;;;;;11.90;94.64;94627.28;6133360;23;20863;-81
2023/10/24 02:31:08;;;;;;;4.70;2.70;;;;;;;11.96;94.35;94615.34;6106367;23;20156;-80
2023/10/24 02:33:33;;;;;;;5.87;2.37;;;;;;;11.93;94.83;94612.28;6107928;23;20160;-82
2023/10/24 02:36:06;;;;;;;3.63;2.57;;;;;;;12.05;93.73;94622.09;6108350;23;20172;-81
2023/10/24 02:38:32;;;;;;;5.10;2.60;;;;;;;12.04;93.31;94620.47;6133106;23;20176;-80
2023/10/24 02:40:57;;;;;;;6.97;3.13;;;;;;;12.03;92.58;94621.47;6158083;23;20167;-81
2023/10/24 02:43:23;;;;;;;3.57;3.27;;;;;;;12.02;92.71;94639.88;6157662;23;20483;-80
2023/10/24 02:45:48;;;;;;;4.50;3.40;;;;;;;11.88;92.23;94638.84;6107755;23;20270;-80
2023/10/24 02:48:13;;;;;;;3.90;2.90;;;;;;;11.94;92.39;94651.16;6134091;23;20175;-81
2023/10/24 02:50:41;;;;;;;6.07;2.97;;;;;;;11.95;92.44;94655.38;6158403;23;20168;-81
2023/10/24 02:53:07;;;;;;;3.53;2.93;;;;;;;11.86;93.08;94665.06;6133110;23;20164;-79
2023/10/24 02:55:35;;;;;;;5.33;2.80;;;;;;;11.80;93.76;94663.13;6132745;23;20654;-80
2023/10/24 02:58:00;;;;;;;5.20;2.60;;;;;;;11.80;94.52;94662.34;6110587;23;20808;-80
2023/10/24 03:00:26;;;;;;;4.97;2.47;;;;;;;11.88;94.42;94655.28;6135310;23;20156;-82
2023/10/24 03:02:52;;;;;;;3.93;2.20;;;;;;;11.97;93.77;94653.41;6133565;23;20156;-82
2023/10/24 03:05:17;;;;;;;4.07;1.83;;;;;;;12.14;93.57;94656.66;6130096;23;20191;-82
2023/10/24 03:07:43;;;;;;;3.03;1.87;;;;;;;12.19;93.59;94656.91;6131786;23;20184;-81
2023/10/24 03:10:08;;;;;;;3.07;1.77;;;;;;;12.31;92.84;94649.47;6107381;23;20156;-81
2023/10/24 03:12:34;;;;;;;4.20;1.90;;;;;;;12.31;93.23;94659.88;6107079;23;20229;-81
2023/10/24 03:14:59;;;;;;;2.93;1.60;;;;;;;12.38;92.83;94681.63;6132063;23;20149;-81
2023/10/24 03:17:26;;;;;;;2.23;1.40;;;;;;;12.44;92.97;94678.28;6155610;23;20288;-80
2023/10/24 03:19:51;;;;;;;2.90;1.77;;;;;;;12.46;92.69;94673.72;6155930;23;20159;-81
2023/10/24 03:22:16;;;;;;;3.40;1.50;;;;;;;12.50;92.79;94669.75;6105540;23;20671;-79
2023/10/24 03:24:42;;;;;;;3.50;1.67;;;;;;;12.54;92.07;94670.19;6127777;23;20675;-79
2023/10/24 03:27:11;;;;;;;3.30;1.70;;;;;;;12.55;92.32;94672.63;6151797;23;20246;-80
2023/10/24 03:29:37;;;;;;;3.30;2.10;;;;;;;12.52;92.22;94666.97;6128300;23;20163;-81
2023/10/24 03:32:03;;;;;;;4.50;1.43;;;;;;;12.51;92.63;94660.94;6152322;23;20172;-79
2023/10/24 03:34:29;;;;;;;2.63;1.30;;;;;;;12.50;92.63;94656.72;6114999;23;20178;-78
2023/10/24 03:36:54;;;;;;;1.80;1.40;;;;;;;12.45;93.19;94659.06;6141794;23;20151;-80
2023/10/24 03:39:19;;;;;;;2.10;1.50;;;;;;;12.49;93.38;94657.72;6109533;23;20289;-81
2023/10/24 03:41:45;;;;;;;3.97;1.47;;;;;;;12.49;93.49;94660.31;6157964;23;20164;-79
2023/10/24 03:44:10;;;;;;;2.83;1.30;;;;;;;12.46;94.02;94665.91;6155827;23;20187;-81
2023/10/24 03:46:35;;;;;;;2.97;1.43;;;;;;;12.50;93.76;94654.13;6132325;23;20176;-81
2023/10/24 03:49:01;;;;;;;3.27;1.40;;;;;;;12.63;93.04;94646.50;6107497;23;20216;-78
2023/10/24 03:51:26;;;;;;;2.27;1.17;;;;;;;12.65;93.00;94652.31;6082712;23;20569;-81
2023/10/24 03:53:53;;;;;;;4.00;1.30;;;;;;;12.66;92.76;94643.50;6154997;23;20632;-79
2023/10/24 03:56:18;;;;;;;2.03;1.23;;;;;;;12.66;92.95;94646.13;6155337;23;20163;-80
2023/10/24 03:58:43;;;;;;;2.93;1.63;;;;;;;12.59;92.04;94637.41;6130363;23;20648;-78
2023/10/24 04:01:08;;;;;;;2.90;1.60;;;;;;;12.47;92.48;94628.47;6130179;23;20160;-81
2023/10/24 04:03:34;;;;;;;3.07;1.60;;;;;;;12.46;92.60;94616.44;6130001;23;20186;-80
2023/10/24 04:06:00;;;;;;;2.70;1.90;;;;;;;12.36;93.41;94613.28;6128543;23;20188;-80
2023/10/24 04:08:25;;;;;;;5.43;2.33;;;;;;;12.27;93.34;94596.13;6104436;23;20512;-81
2023/10/24 04:10:50;;;;;;;3.40;2.10;;;;;;;12.20;93.81;94596.06;6153023;23;20168;-78
2023/10/24 04:13:16;;;;;;;6.40;2.33;;;;;;;12.16;94.13;94600.81;6103798;23;20859;-81
2023/10/24 04:15:41;;;;;;;2.60;2.00;;;;;;;12.14;94.22;94597.59;6129625;23;20152;-80
2023/10/24 04:18:06;;;;;;;4.90;2.97;;;;;;;12.08;95.10;94593.09;6128235;23;20175;-79
2023/10/24 04:20:32;;;;;;;4.37;2.10;;;;;;;12.09;94.94;94596.50;6128056;23;20175;-81
2023/10/24 04:23:01;;;;;;;5.10;2.10;;;;;;;11.99;96.04;94582.97;6152985;23;20164;-79
2023/10/24 04:25:28;;;;;;;6.70;1.97;;;;;;;12.05;95.31;94574.44;6103024;23;20183;-81
2023/10/24 04:27:53;;;;;;;4.20;2.20;;;;;;;12.00;95.52;94561.97;6131595;23;20176;-82
2023/10/24 04:30:18;;;;;;;2.43;2.00;;;;;;;12.03;95.66;94576.44;6130776;23;20163;-81
2023/10/24 04:32:44;;;;;;;3.33;2.03;;;;;;;12.08;94.89;94587.09;6128101;23;20152;-78
2023/10/24 04:35:09;;;;;;;5.47;2.27;;;;;;;12.07;95.13;94598.50;6151573;23;20244;-81
2023/10/24 04:37:35;;;;;;;3.57;2.03;;;;;;;12.09;95.01;94618.13;6127538;23;20180;-82
2023/10/24 04:40:00;;;;;;;3.47;2.20;;;;;;;12.08;94.72;94628.72;6152162;23;20163;-81
2023/10/24 04:42:26;;;;;;;6.63;3.30;;;;;;;12.09;95.24;94635.53;6128498;23;20158;-81
2023/10/24 04:44:51;;;;;;;3.93;2.03;;;;;;;12.04;95.38;94630.88;6130215;23;20162;-79
2023/10/24 04:47:16;;;;;;;5.13;2.27;;;;;;;12.06;96.07;94615.91;6131802;23;20163;-79
2023/10/24 04:49:41;;;;;;;4.77;2.60;;;;;;;12.07;95.57;94612.31;6129405;23;20159;-82
2023/10/24 04:52:07;;;;;;;2.93;2.03;;;;;;;12.14;95.30;94605.41;6128663;23;20152;-80
2023/10/24 04:54:33;;;;;;;3.87;2.43;;;;;;;12.12;95.24;94603.97;6156772;23;20168;-79
2023/10/24 04:57:00;;;;;;;2.90;2.33;;;;;;;12.11;95.58;94591.94;6108871;23;20538;-82
2023/10/24 04:59:26;;;;;;;2.33;2.10;;;;;;;12.10;95.67;94591.16;6133258;23;20179;-81
2023/10/24 05:01:51;;;;;;;5.63;2.03;;;;;;;12.07;96.25;94586.28;6131148;23;20160;-80
2023/10/24 05:04:16;;;;;;;5.47;2.23;;;;;;;12.10;96.08;94569.50;6155419;23;20475;-80
2023/10/24 05:06:43;;;;;;;5.17;2.40;;;;;;;12.06;96.18;94587.28;6155653;23;20198;-82
2023/10/24 05:09:09;;;;;;;2.70;2.13;;;;;;;12.08;95.68;94567.06;6151625;23;20184;-79
2023/10/24 05:11:36;;;;;;;3.67;2.40;;;;;;;12.08;96.08;94566.28;6127044;23;20167;-80
2023/10/24 05:14:01;;;;;;;7.53;3.47;;;;;;;11.91;97.63;94543.03;6150818;23;20952;-79
2023/10/24 05:16:26;;;;;;;6.00;2.20;;;;;;;12.00;96.82;94533.34;6102414;23;20219;-81
2023/10/24 05:18:52;;;;;;;3.00;2.70;;;;;;;12.06;97.21;94535.22;6151562;23;20183;-80
2023/10/24 05:21:17;;;;;;;2.87;2.37;;;;;;;12.01;97.38;94527.16;6127416;23;20238;-81
2023/10/24 05:23:42;;;;;;;2.40;2.20;;;;;;;12.06;97.36;94531.81;6152024;23;20160;-79
2023/10/24 05:26:07;;;;;;;2.47;2.20;;;;;;;12.08;96.33;94541.06;6126893;23;20284;-81
2023/10/24 05:28:34;;;;;;;6.10;2.50;;;;;;;12.07;96.37;94544.66;6126721;23;20180;-81
2023/10/24 05:31:04;;;;;;;3.80;2.13;;;;;;;12.08;96.37;94533.25;6126745;23;20160;-82
2023/10/24 05:33:29;;;;;;;3.93;2.40;;;;;;;12.07;97.99;94531.63;6102198;23;20156;-82
2023/10/24 05:35:54;;;;;;;3.30;1.93;;;;;;;12.14;97.15;94534.31;6125176;23;20612;-79
2023/10/24 05:38:20;;;;;;;2.83;1.97;;;;;;;12.14;96.96;94542.94;6101697;23;20643;-82
2023/10/24 05:40:45;;;;;;;3.50;2.07;;;;;;;12.23;97.08;94535.03;6126441;23;20182;-81
2023/10/24 05:43:11;;;;;;;4.03;1.93;;;;;;;12.22;96.10;94531.63;6152809;23;20552;-80
2023/10/24 05:45:36;;;;;;;4.20;1.90;;;;;;;12.25;96.46;94533.84;6126953;23;20187;-81
2023/10/24 05:48:03;;;;;;;5.87;2.00;;;;;;;12.23;95.92;94532.44;6125868;23;20242;-79
2023/10/24 05:50:30;;;;;;;5.13;1.97;;;;;;;12.22;96.43;94543.84;6150915;23;20160;-81
2023/10/24 05:52:55;;;;;;;3.77;2.57;;;;;;;12.19;96.01;94545.81;6102313;23;20160;-81
2023/10/24 05:55:21;;;;;;;6.53;3.57;;;;;;;12.20;95.96;94541.41;6126067;23;20477;-80
2023/10/24 05:57:46;;;;;;;7.03;4.47;;;;;;;12.19;96.05;94545.81;6151755;23;20184;-80
2023/10/24 06:00:12;;;;;;;12.20;5.80;;;;;;;12.16;96.30;94540.97;6105126;23;20373;-80
2023/10/24 06:02:37;;;;;;;6.90;4.53;;;;;;;12.15;96.93;94535.94;6128357;23;20164;-79
2023/10/24 06:05:03;;;;;;;5.20;4.70;;;;;;;12.22;96.58;94530.81;6127527;23;20287;-81
2023/10/24 06:07:29;;;;;;;10.10;7.93;;;;;;;12.17;96.14;94539.16;6128888;23;20188;-83
2023/10/24 06:09:54;;;;;;;9.27;8.40;;;;;;;12.16;96.65;94548.75;6130169;23;20152;-81
2023/10/24 06:12:19;;;;;;;5.63;3.93;;;;;;;12.21;96.49;94539.63;6154193;23;20519;-81
2023/10/24 06:14:45;;;;;;;4.83;3.27;;;;;;;12.18;96.36;94538.97;6128411;23;20519;-82
2023/10/24 06:17:16;;;;;;;3.97;2.90;;;;;;;12.14;96.56;94555.16;6152621;23;20163;-80
2023/10/24 06:19:41;;;;;;;3.10;2.57;;;;;;;12.15;96.34;94557.56;6128596;23;20148;-79
2023/10/24 06:22:07;;;;;;;3.07;2.63;;;;;;;12.15;97.14;94575.78;6129025;23;20223;-80
2023/10/24 06:24:32;;;;;;;2.87;2.60;;;;;;;12.10;97.61;94588.53;6152657;23;20556;-80
2023/10/24 06:26:57;;;;;;;5.73;2.40;;;;;;;12.21;97.24;94581.25;6157041;23;20235;-78
2023/10/24 06:29:22;;;;;;;4.67;2.30;;;;;;;12.22;97.17;94593.28;6175723;23;20261;-79
2023/10/24 06:31:48;;;;;;;3.53;1.87;;;;;;;12.23;97.16;94593.09;6151499;23;20160;-79
2023/10/24 06:34:13;;;;;;;2.63;1.83;;;;;;;12.23;97.62;94595.69;6150830;23;20152;-79
2023/10/24 06:36:38;;;;;;;2.43;2.00;;;;;;;12.26;97.36;94610.94;6150508;23;20166;-79
2023/10/24 06:39:04;;;;;;;4.27;2.70;;;;;;;12.29;97.09;94604.59;6161105;23;20188;-80
2023/10/24 06:41:29;;;;;;;11.67;6.43;;;;;;;12.23;97.31;94595.69;6112644;23;20170;-81
2023/10/24 06:43:54;;;;;;;8.37;4.10;;;;;;;12.23;98.00;94605.31;6134232;23;20163;-81
2023/10/24 06:46:20;;;;;;;6.07;2.70;;;;;;;12.15;98.85;94598.41;6135081;23;20176;-80
2023/10/24 06:48:45;;;;;;;3.07;2.30;;;;;;;12.21;98.25;94587.28;6110422;23;20191;-82
2023/10/24 06:51:10;;;;;;;3.77;2.30;;;;;;;12.31;97.45;94572.19;6136818;23;20167;-81
2023/10/24 06:53:36;;;;;;;3.80;2.47;;;;;;;12.29;97.78;94568.97;6157776;23;20166;-79
2023/10/24 06:56:01;;;;;;;2.90;2.60;;;;;;;12.40;97.39;94575.50;6132414;23;20192;-80
2023/10/24 06:58:27;;;;;;;3.70;2.93;;;;;;;12.38;97.19;94577.47;6156952;23;20183;-80
2023/10/24 07:00:53;;;;;;;5.10;4.20;;;;;;;12.33;98.35;94564.19;6108615;23;20500;-80
2023/10/24 07:03:18;;;;;;;4.77;4.10;;;;;;;12.38;98.19;94569.66;6136165;23;20152;-79
2023/10/24 07:05:50;;;;;;;4.67;3.23;;;;;;;12.24;99.92;94567.88;6133668;23;20200;-81
2023/10/24 07:08:15;;;;;;;4.90;3.63;;;;;;;12.38;98.82;94567.06;6108199;23;20184;-81
2023/10/24 07:10:41;;;;;;;7.73;4.93;;;;;;;12.38;98.49;94564.47;6132961;23;20175;-81
2023/10/24 07:13:06;;;;;;;3.63;3.33;;;;;;;12.38;98.74;94561.84;6132214;23;20168;-80
2023/10/24 07:15:32;;;;;;;4.63;2.93;;;;;;;12.43;98.59;94564.69;6156372;23;20157;-81
2023/10/24 07:17:57;;;;;;;4.97;3.13;;;;;;;12.46;98.83;94570.38;6132522;23;20171;-80
2023/10/24 07:20:22;;;;;;;6.67;5.80;;;;;;;12.42;98.75;94576.09;6157696;23;20171;-80
2023/10/24 07:22:48;;;;;;;16.13;12.87;;;;;;;12.42;99.16;94573.50;6132515;23;20210;-81
2023/10/24 07:25:13;;;;;;;5.87;4.37;;;;;;;12.29;100.00;94568.97;6132369;23;20217;-80
2023/10/24 07:27:38;;;;;;;6.00;4.23;;;;;;;12.44;100.00;94574.13;6133672;23;20207;-83
2023/10/24 07:30:04;;;;;;;4.97;3.50;;;;;;;12.53;99.35;94575.63;6131191;23;20211;-84
2023/10/24 07:32:30;;;;;;;3.13;2.80;;;;;;;12.52;98.98;94570.59;6130477;23;20479;-83
2023/10/24 07:34:56;;;;;;;4.93;2.43;;;;;;;12.46;99.10;94575.56;6151577;23;20561;-80
2023/10/24 07:37:21;;;;;;;5.17;2.93;;;;;;;12.45;99.08;94579.16;6127484;23;20311;-82
2023/10/24 07:39:47;;;;;;;6.30;4.60;;;;;;;12.46;98.84;94585.19;6152637;23;20247;-82
2023/10/24 07:42:12;;;;;;;14.33;13.03;;;;;;;12.39;99.88;94585.09;6127355;23;20160;-82
2023/10/24 07:44:37;;;;;;;13.27;11.93;;;;;;;12.43;99.60;94591.53;6105413;23;20218;-81
2023/10/24 07:47:03;;;;;;;8.70;7.80;;;;;;;12.43;99.88;94582.94;6131801;23;20182;-80
2023/10/24 07:49:28;;;;;;;9.50;7.20;;;;;;;12.38;100.00;94580.88;6155141;23;20596;-82
2023/10/24 07:51:54;;;;;;;8.00;5.87;;;;;;;12.55;99.67;94585.88;6130632;23;20156;-80
2023/10/24 07:54:19;;;;;;;8.27;5.97;;;;;;;12.55;99.54;94598.91;6156015;23;20156;-82
2023/10/24 07:56:44;;;;;;;8.20;5.20;;;;;;;12.60;99.26;94592.16;6130502;23;20235;-83
2023/10/24 07:59:10;;;;;;;7.87;6.43;;;;;;;12.57;99.54;94587.31;6130858;23;20259;-82
2023/10/24 08:01:38;;;;;;;9.97;5.43;;;;;;;12.61;99.76;94591.16;6131788;23;20159;-81
2023/10/24 08:04:04;;;;;;;8.53;6.43;;;;;;;12.55;100.00;94586.69;6116031;23;20226;-80
2023/10/24 08:06:29;;;;;;;6.20;5.60;;;;;;;12.59;100.00;94592.34;6143098;23;20636;-80
2023/10/24 08:08:54;;;;;;;6.90;4.50;;;;;;;12.65;99.72;94597.63;6169508;23;20184;-81
2023/10/24 08:11:20;;;;;;;5.60;4.80;;;;;;;12.71;99.54;94598.66;6146504;23;20151;-78
2023/10/24 08:13:45;;;;;;;4.27;3.03;;;;;;;12.77;98.33;94598.75;6168046;23;20178;-82
2023/10/24 08:16:10;;;;;;;6.77;3.63;;;;;;;12.75;98.23;94605.94;6168348;23;20166;-80
2023/10/24 08:18:37;;;;;;;3.70;3.23;;;;;;;12.65;98.80;94608.03;6169645;23;20254;-81
2023/10/24 08:21:03;;;;;;;4.23;3.53;;;;;;;12.76;98.80;94606.75;6119749;23;20163;-80
2023/10/24 08:23:28;;;;;;;5.47;3.33;;;;;;;12.72;98.16;94602.88;6144170;23;20163;-80
2023/10/24 08:25:53;;;;;;;3.83;3.33;;;;;;;12.72;97.52;94601.13;6166707;23;20199;-80
2023/10/24 08:28:19;;;;;;;3.90;3.30;;;;;;;12.68;97.76;94609.47;6162805;23;20360;-82
2023/10/24 08:30:44;;;;;;;4.17;3.23;;;;;;;12.69;98.16;94606.69;6131072;23;20167;-80
2023/10/24 08:33:09;;;;;;;5.20;3.67;;;;;;;12.63;98.00;94612.63;6106549;23;20160;-83
2023/10/24 08:35:35;;;;;;;4.27;3.80;;;;;;;12.65;97.96;94612.44;6130292;23;20152;-83
2023/10/24 08:38:00;;;;;;;6.13;4.07;;;;;;;12.60;98.43;94606.97;6130629;23;20171;-81
2023/10/24 08:40:27;;;;;;;6.17;4.97;;;;;;;12.56;98.26;94609.13;6130236;23;20156;-81
2023/10/24 08:42:52;;;;;;;6.83;6.20;;;;;;;12.46;98.76;94600.81;6105270;23;20510;-81
2023/10/24 08:45:18;;;;;;;7.13;5.83;;;;;;;12.61;98.76;94603.38;6106132;23;20178;-82
2023/10/24 08:47:47;;;;;;;7.90;7.03;;;;;;;12.57;98.98;94608.16;6133048;23;20259;-83
2023/10/24 08:50:12;;;;;;;6.17;5.37;;;;;;;12.66;99.39;94606.25;6105851;23;20273;-80
2023/10/24 08:52:38;;;;;;;5.70;5.10;;;;;;;12.73;98.56;94602.72;6155718;23;20949;-82
2023/10/24 08:55:04;;;;;;;6.00;4.40;;;;;;;12.84;98.04;94592.81;6130930;23;20234;-83
2023/10/24 08:57:36;;;;;;;5.23;4.70;;;;;;;12.85;98.08;94582.19;6131431;23;20639;-79
2023/10/24 09:00:02;;;;;;;4.90;4.20;;;;;;;12.95;97.85;94574.06;6133631;23;20152;-79
2023/10/24 09:02:28;;;;;;;5.80;3.90;;;;;;;12.98;97.48;94560.66;6131950;23;20228;-78
2023/10/24 09:04:53;;;;;;;7.00;4.17;;;;;;;12.97;97.44;94557.25;6105589;23;20163;-78
2023/10/24 09:07:18;;;;;;;24.00;16.50;;;;;;;12.99;97.36;94564.91;6132251;23;20618;-77
2023/10/24 09:09:44;;;;;;;14.83;9.33;;;;;;;13.04;97.50;94571.16;6106515;23;20164;-78
2023/10/24 09:12:14;;;;;;;7.70;6.90;;;;;;;13.06;97.67;94570.97;6128909;23;20172;-81
2023/10/24 09:14:40;;;;;;;9.17;7.43;;;;;;;13.14;97.90;94570.03;6129060;23;20159;-82
2023/10/24 09:17:05;;;;;;;15.40;9.90;;;;;;;13.06;97.86;94570.97;6105609;23;20156;-82
2023/10/24 09:19:32;;;;;;;17.10;12.17;;;;;;;13.11;98.17;94568.63;6129393;23;20167;-81
2023/10/24 09:21:57;;;;;;;12.93;8.77;;;;;;;13.18;97.83;94568.69;6128918;23;20152;-80
2023/10/24 09:24:23;;;;;;;15.10;11.70;;;;;;;13.15;97.96;94566.44;6128194;23;20167;-81
2023/10/24 09:26:52;;;;;;;9.10;6.80;;;;;;;13.22;97.76;94568.16;6128427;23;20183;-82
2023/10/24 09:29:18;;;;;;;10.63;7.47;;;;;;;13.19;97.92;94575.50;6103686;23;20192;-81
2023/10/24 09:31:47;;;;;;;8.53;5.73;;;;;;;13.05;98.30;94579.78;6104264;23;20554;-79
2023/10/24 09:34:14;;;;;;;4.97;4.47;;;;;;;13.11;97.94;94589.47;6153443;23;20175;-80
2023/10/24 09:36:39;;;;;;;4.47;4.07;;;;;;;13.03;98.64;94587.78;6104780;23;20164;-80
2023/10/24 09:39:04;;;;;;;14.73;12.67;;;;;;;13.05;98.81;94590.22;6152468;23;20247;-81
2023/10/24 09:41:30;;;;;;;10.67;8.33;;;;;;;13.17;98.31;94588.75;6127428;23;20586;-80
2023/10/24 09:44:00;;;;;;;6.07;5.13;;;;;;;13.18;98.13;94585.13;6102321;23;20159;-82
2023/10/24 09:46:27;;;;;;;5.47;4.87;;;;;;;13.09;99.33;94588.06;6103390;23;20167;-81
2023/10/24 09:48:54;;;;;;;16.37;4.20;;;;;;;13.00;99.36;94588.19;6102973;23;20186;-83
2023/10/24 09:51:19;;;;;;;4.07;3.47;;;;;;;13.06;99.01;94597.03;6152185;23;20170;-83
2023/10/24 09:53:46;;;;;;;4.63;3.30;;;;;;;12.99;99.09;94591.78;6102705;23;20156;-81
2023/10/24 09:56:12;;;;;;;3.10;2.83;;;;;;;13.22;98.12;94596.81;6151733;23;20199;-82
2023/10/24 09:58:41;;;;;;;3.47;3.00;;;;;;;13.16;98.99;94591.50;6151989;23;20561;-82
2023/10/24 10:01:07;;;;;;;3.70;3.07;;;;;;;13.16;98.84;94596.72;6127361;23;20211;-83
2023/10/24 10:03:34;;;;;;;4.83;3.47;;;;;;;13.22;98.66;94594.22;6102723;23;20255;-82
2023/10/24 10:06:02;;;;;;;4.10;3.70;;;;;;;13.15;99.23;94582.09;6101983;23;20644;-80
2023/10/24 10:08:28;;;;;;;4.47;4.07;;;;;;;13.28;98.72;94587.47;6101328;23;20227;-79
2023/10/24 10:10:54;;;;;;;3.50;3.20;;;;;;;13.45;97.93;94593.22;6127052;23;20159;-82
2023/10/24 10:13:26;;;;;;;4.40;3.07;;;;;;;13.54;97.49;94599.91;6127158;23;20183;-80
2023/10/24 10:16:06;;;;;;;3.83;3.53;;;;;;;13.65;96.47;94591.56;6128323;23;20129;-80
2023/10/24 10:18:50;;;;;;;4.57;3.00;;;;;;;13.57;97.07;94589.09;6105881;23;20172;-82
2023/10/24 10:21:29;;;;;;;5.37;3.73;;;;;;;13.44;97.16;94575.97;6131017;23;20151;-83
2023/10/24 10:24:19;;;;;;;4.00;3.60;;;;;;;13.39;97.57;94571.31;6104153;23;20619;-81
2023/10/24 10:26:49;;;;;;;4.37;3.97;;;;;;;13.42;97.51;94564.88;6129242;23;20267;-80
2023/10/24 10:29:32;;;;;;;5.40;3.43;;;;;;;13.42;96.05;94570.09;6104980;23;20187;-80
2023/10/24 10:32:13;;;;;;;4.90;4.40;;;;;;;13.38;96.80;94569.69;6104333;23;20148;-79
2023/10/24 10:34:38;;;;;;;4.67;4.27;;;;;;;13.44;96.64;94557.72;6124063;23;20192;-82
2023/10/24 10:37:04;;;;;;;3.93;3.60;;;;;;;13.32;97.21;94552.97;6125703;23;20152;-80
2023/10/24 10:39:30;;;;;;;3.73;3.43;;;;;;;13.42;96.73;94550.03;6127386;23;20171;-82
2023/10/24 10:41:56;;;;;;;4.13;3.30;;;;;;;13.50;96.22;94551.72;6104052;23;20484;-81
2023/10/24 10:44:39;;;;;;;3.30;3.03;;;;;;;13.56;96.36;94553.56;6127596;23;20167;-82
2023/10/24 10:47:06;;;;;;;4.10;3.70;;;;;;;13.50;96.01;94546.50;6130876;23;20186;-81
2023/10/24 10:49:48;;;;;;;4.40;4.00;;;;;;;13.46;96.52;94537.47;6104257;23;20160;-81
2023/10/24 10:52:22;;;;;;;4.00;3.40;;;;;;;13.42;95.98;94544.03;6104192;23;20152;-81
2023/10/24 10:55:20;;;;;;;5.03;3.77;;;;;;;13.36;96.52;94539.59;6127944;23;20210;-82
2023/10/24 10:58:03;;;;;;;4.37;3.97;;;;;;;13.33;96.64;94530.31;6127511;23;20278;-79
2023/10/24 11:00:34;;;;;;;5.20;4.07;;;;;;;13.39;96.99;94523.56;6102343;23;20210;-82
2023/10/24 11:03:21;;;;;;;3.90;3.57;;;;;;;13.41;96.70;94521.56;6102729;23;20492;-81
2023/10/24 11:05:46;;;;;;;3.60;3.30;;;;;;;13.42;96.66;94531.00;6126435;23;20168;-81
2023/10/24 11:08:17;;;;;;;4.67;3.40;;;;;;;13.46;96.43;94524.41;6151670;23;20183;-82
2023/10/24 11:10:56;;;;;;;4.37;3.57;;;;;;;13.42;97.25;94520.56;6127483;23;20210;-81
2023/10/24 11:13:38;;;;;;;5.60;5.10;;;;;;;13.45;96.70;94528.81;6126242;23;20588;-80
2023/10/24 11:16:05;;;;;;;5.13;4.63;;;;;;;13.42;97.57;94531.78;6101373;23;20148;-81
2023/10/24 11:18:34;;;;;;;7.77;5.70;;;;;;;13.47;96.84;94536.47;6101906;23;20179;-82
2023/10/24 11:21:01;;;;;;;5.13;4.63;;;;;;;13.44;96.04;94531.63;6102221;23;20170;-81
2023/10/24 11:23:27;;;;;;;6.47;5.10;;;;;;;13.49;95.93;94537.06;6101813;23;20616;-80
2023/10/24 11:25:54;;;;;;;6.00;5.40;;;;;;;13.36;96.16;94529.16;6126285;23;20179;-82
2023/10/24 11:28:20;;;;;;;6.23;5.33;;;;;;;13.42;96.36;94526.56;6103928;23;20188;-82